Time;durP1;ratioP1;P1;durP2;ratioP2;P2;SDS_P1;SDS_P2;PMS_P1;PMS_P2;Temp;Humidity;BMP_temperature;BMP_pressure;BME280_temperature;BME280_humidity;BME280_pressure;Samples;Min_cycle;Max_cycle;Signal;HPM_P1;HPM_P2
2022/11/11 00:01:53;;;;;;;19.60;10.00;;;;;;;6.44;72.83;100543.16;5139491;28;20190;-72
2022/11/11 00:05:02;;;;;;;15.32;8.27;;;;;;;6.68;73.55;100575.28;5140932;28;20516;-71
2022/11/11 00:08:11;;;;;;;15.73;8.38;;;;;;;6.61;72.37;100577.38;5141205;28;20055;-73
2022/11/11 00:11:20;;;;;;;15.55;7.90;;;;;;;6.54;72.33;100570.72;5141875;28;20046;-73
2022/11/11 00:14:29;;;;;;;18.23;8.63;;;;;;;6.48;72.55;100565.78;5139089;28;20421;-73
2022/11/11 00:28:08;;;;;;;16.73;8.70;;;;;;;6.34;72.48;100580.50;5140050;28;20057;-71
2022/11/11 00:31:17;;;;;;;18.55;9.27;;;;;;;6.27;72.83;100559.84;5142211;28;20066;-71
2022/11/11 00:34:29;;;;;;;19.48;9.55;;;;;;;6.35;72.50;100578.72;5140304;28;20098;-71
2022/11/11 00:37:41;;;;;;;15.90;8.63;;;;;;;6.37;72.53;100583.94;5141133;28;20054;-71
2022/11/11 00:40:51;;;;;;;12.45;8.25;;;;;;;6.42;72.39;100587.16;5137924;28;20181;-72
2022/11/11 00:44:00;;;;;;;16.00;8.02;;;;;;;6.21;73.01;100583.84;5140516;28;20051;-71
2022/11/11 00:50:58;;;;;;;14.00;7.68;;;;;;;6.21;72.82;100604.91;5141043;28;20112;-74
2022/11/11 00:54:08;;;;;;;17.30;7.68;;;;;;;6.09;72.80;100601.97;5140815;28;20042;-73
2022/11/11 00:57:17;;;;;;;19.30;8.55;;;;;;;6.20;72.42;100608.50;5139956;28;20051;-74
2022/11/11 01:00:30;;;;;;;16.33;8.00;;;;;;;6.15;72.02;100607.84;5140691;28;20070;-73
2022/11/11 01:03:41;;;;;;;15.23;8.00;;;;;;;6.11;72.57;100604.53;5133268;28;20055;-73
2022/11/11 01:06:50;;;;;;;18.10;7.38;;;;;;;6.11;72.94;100599.25;5147942;28;20416;-73
2022/11/11 01:10:00;;;;;;;19.70;7.53;;;;;;;6.17;73.29;100588.41;5138893;28;20544;-72
2022/11/11 01:13:23;;;;;;;16.00;7.45;;;;;;;6.15;72.77;100592.06;5141272;28;20054;-73
2022/11/11 01:16:32;;;;;;;13.73;6.90;;;;;;;6.01;72.97;100583.06;5140023;28;20051;-71
2022/11/11 01:19:41;;;;;;;14.82;7.13;;;;;;;6.09;73.24;100585.31;5140209;28;20047;-71
2022/11/11 01:22:50;;;;;;;21.58;8.00;;;;;;;6.11;73.60;100579.03;5136968;28;20069;-70
2022/11/11 01:26:12;;;;;;;18.77;8.13;;;;;;;6.21;73.89;100595.22;5137929;28;20184;-71
2022/11/11 01:29:21;;;;;;;16.33;8.15;;;;;;;6.28;73.38;100599.25;5139888;28;20610;-72
2022/11/11 01:32:30;;;;;;;21.88;9.27;;;;;;;6.51;75.00;100610.41;5138137;28;20065;-71
2022/11/11 01:35:41;;;;;;;17.92;9.02;;;;;;;6.55;73.67;100607.53;5140184;28;20057;-72
2022/11/11 01:38:52;;;;;;;17.45;9.05;;;;;;;6.53;73.95;100606.78;5137507;28;20055;-71
2022/11/11 01:42:02;;;;;;;16.17;8.52;;;;;;;6.40;73.31;100603.06;5136101;28;20096;-72
2022/11/11 01:45:49;;;;;;;16.67;9.02;;;;;;;6.41;73.39;100611.81;5149566;28;20054;-72
2022/11/11 01:49:20;;;;;;;18.58;8.85;;;;;;;6.34;73.72;100603.38;5138230;28;20077;-72
2022/11/11 01:52:37;;;;;;;21.10;8.40;;;;;;;6.28;73.48;100593.13;5139166;28;20062;-71
2022/11/11 01:55:47;;;;;;;17.08;8.48;;;;;;;6.13;73.31;100592.13;5141534;28;20050;-71
2022/11/11 01:59:03;;;;;;;19.80;8.88;;;;;;;6.20;73.15;100598.81;5137858;28;20062;-71
2022/11/11 02:02:21;;;;;;;17.05;8.07;;;;;;;6.33;73.77;100602.53;5140749;28;20078;-71
2022/11/11 02:05:42;;;;;;;18.42;8.63;;;;;;;6.46;73.79;100610.66;5140481;28;20552;-71
2022/11/11 02:08:52;;;;;;;19.85;8.13;;;;;;;6.30;73.34;100615.84;5145366;28;20061;-71
2022/11/11 02:15:36;;;;;;;14.80;7.78;;;;;;;6.07;73.70;100619.63;5143993;28;20051;-72
2022/11/11 02:18:45;;;;;;;13.95;7.63;;;;;;;6.16;73.13;100614.81;5144453;28;20139;-71
2022/11/11 02:22:00;;;;;;;16.85;7.82;;;;;;;6.00;72.58;100614.75;5139761;28;20050;-71
2022/11/11 02:25:13;;;;;;;16.40;7.88;;;;;;;5.87;72.62;100620.56;5143403;28;20069;-72
2022/11/11 02:28:24;;;;;;;13.90;7.75;;;;;;;5.94;73.60;100617.66;5143462;28;20046;-71
2022/11/11 02:31:33;;;;;;;19.15;7.80;;;;;;;5.95;72.66;100609.69;5143523;28;20093;-72
2022/11/11 02:34:42;;;;;;;12.18;6.95;;;;;;;5.98;72.29;100611.31;5143986;28;20054;-73
2022/11/11 02:37:52;;;;;;;12.55;7.13;;;;;;;5.96;72.43;100616.69;5142861;28;20620;-73
2022/11/11 02:44:29;;;;;;;19.58;7.93;;;;;;;5.59;72.48;100607.84;5144329;28;20101;-73
2022/11/11 02:47:39;;;;;;;13.25;7.50;;;;;;;5.51;72.59;100593.38;5139056;28;20066;-73
2022/11/11 02:50:48;;;;;;;18.38;8.38;;;;;;;5.68;72.72;100601.31;5139275;28;20501;-73
2022/11/11 02:53:57;;;;;;;12.13;7.78;;;;;;;5.67;72.89;100582.97;5141307;28;20118;-72
2022/11/11 02:57:07;;;;;;;18.17;8.60;;;;;;;5.81;73.11;100591.03;5141183;28;20073;-72
2022/11/11 03:00:16;;;;;;;18.67;8.48;;;;;;;5.73;73.79;100578.28;5141744;28;20058;-72
2022/11/11 03:03:25;;;;;;;14.48;8.32;;;;;;;5.78;73.41;100592.03;5142004;28;20077;-73
2022/11/11 03:06:35;;;;;;;18.95;8.70;;;;;;;5.93;73.92;100581.72;5142525;28;20437;-73
2022/11/11 03:09:44;;;;;;;17.80;10.00;;;;;;;5.97;74.05;100586.78;5139329;28;20150;-73
2022/11/11 03:12:55;;;;;;;14.70;9.48;;;;;;;6.06;73.78;100582.81;5139577;28;20101;-72
2022/11/11 03:16:04;;;;;;;22.83;9.00;;;;;;;5.89;74.18;100580.97;5143943;28;20062;-73
2022/11/11 03:19:13;;;;;;;19.17;8.13;;;;;;;5.81;73.57;100578.72;5138975;28;20678;-73
2022/11/11 03:22:22;;;;;;;19.02;8.60;;;;;;;5.80;73.54;100573.56;5143712;28;20049;-73
2022/11/11 03:25:51;;;;;;;17.17;9.02;;;;;;;5.82;72.96;100566.41;5139674;28;20129;-73
2022/11/11 03:29:06;;;;;;;16.85;8.68;;;;;;;5.82;73.78;100576.94;5140481;28;20074;-73
2022/11/11 03:32:15;;;;;;;22.00;9.02;;;;;;;5.74;73.99;100576.47;5142252;28;20062;-72
2022/11/11 03:35:23;;;;;;;16.02;7.53;;;;;;;5.79;73.21;100577.09;5140617;28;20092;-72
2022/11/11 03:38:32;;;;;;;14.55;7.88;;;;;;;5.65;72.52;100575.97;5141699;28;20057;-73
2022/11/11 03:41:41;;;;;;;17.60;8.18;;;;;;;5.60;72.75;100588.53;5141781;28;20053;-73
2022/11/11 03:44:50;;;;;;;13.52;7.53;;;;;;;5.78;74.42;100601.72;5139570;28;20051;-71
2022/11/11 03:47:59;;;;;;;14.13;7.82;;;;;;;6.03;73.97;100612.81;5140155;28;20082;-72
2022/11/11 03:51:09;;;;;;;15.38;7.45;;;;;;;6.04;73.83;100603.97;5141402;28;20061;-72
2022/11/11 03:54:17;;;;;;;13.48;7.97;;;;;;;6.01;73.30;100614.66;5142870;28;20083;-73
2022/11/11 03:57:29;;;;;;;16.92;8.55;;;;;;;5.81;72.92;100618.22;5142049;28;20128;-71
2022/11/11 04:00:38;;;;;;;14.18;7.68;;;;;;;5.76;73.47;100614.97;5142794;28;20077;-73
2022/11/11 04:11:05;;;;;;;12.50;6.97;;;;;;;5.57;73.32;100624.66;5137868;28;20082;-72
2022/11/11 04:17:42;;;;;;;15.13;6.68;;;;;;;5.56;72.86;100623.81;5142401;28;20054;-72
2022/11/11 04:29:27;;;;;;;10.63;6.57;;;;;;;5.37;72.74;100596.66;5138527;28;20520;-73
2022/11/11 04:31:17;;;;;;;13.07;6.72;;;;;;;5.39;72.70;100616.69;5142169;28;20054;-71
2022/11/11 04:34:26;;;;;;;12.40;6.88;;;;;;;5.36;72.47;100615.97;5139855;28;20516;-70
2022/11/11 04:37:44;;;;;;;16.48;7.35;;;;;;;5.34;72.33;100633.63;5141200;28;20744;-72
2022/11/11 04:41:02;;;;;;;10.27;5.95;;;;;;;5.30;72.88;100632.06;5129991;28;20043;-72
2022/11/11 04:48:01;;;;;;;13.63;6.75;;;;;;;5.26;72.61;100636.56;5141715;28;20641;-72
2022/11/11 04:51:10;;;;;;;16.45;7.07;;;;;;;5.13;73.18;100654.72;5139835;28;20102;-71
2022/11/11 04:54:19;;;;;;;12.43;6.55;;;;;;;5.10;72.61;100657.47;5142079;28;20066;-70
2022/11/11 04:57:29;;;;;;;10.80;6.72;;;;;;;5.11;72.70;100659.16;5140367;28;20090;-71
2022/11/11 05:00:38;;;;;;;12.02;6.90;;;;;;;5.21;72.58;100669.28;5140603;23;20506;-73
2022/11/11 05:03:47;;;;;;;12.82;7.13;;;;;;;5.17;73.12;100674.69;5119852;29;20432;-73
2022/11/11 05:10:24;;;;;;;12.60;6.70;;;;;;;5.20;72.58;100681.59;5115451;29;20051;-73
2022/11/11 05:27:25;;;;;;;11.38;6.78;;;;;;;5.02;72.89;100691.13;5115948;28;20572;-73
2022/11/11 05:30:34;;;;;;;13.25;7.22;;;;;;;5.18;72.79;100689.53;5117059;28;20606;-73
2022/11/11 05:33:43;;;;;;;16.25;7.15;;;;;;;5.12;72.66;100692.44;5117243;28;20498;-74
2022/11/11 05:36:52;;;;;;;13.88;7.90;;;;;;;5.09;73.43;100695.19;5118441;28;20122;-75
2022/11/11 05:40:02;;;;;;;16.50;7.70;;;;;;;5.08;73.31;100685.59;5118730;28;20051;-73
2022/11/11 05:43:10;;;;;;;11.75;7.15;;;;;;;5.05;73.13;100693.63;5116578;28;20085;-73
2022/11/11 05:46:19;;;;;;;13.73;7.80;;;;;;;5.00;73.53;100714.00;5118864;28;20051;-73
2022/11/11 05:49:28;;;;;;;14.70;8.05;;;;;;;5.12;73.10;100726.59;5116617;29;20089;-73
2022/11/11 05:52:38;;;;;;;17.13;9.15;;;;;;;5.19;73.08;100729.81;5118384;29;20058;-73
2022/11/11 05:55:49;;;;;;;20.00;11.23;;;;;;;5.22;74.11;100728.84;5116479;28;20114;-73
2022/11/11 05:58:58;;;;;;;23.88;12.40;;;;;;;5.22;73.75;100728.84;5118935;28;20051;-73
2022/11/11 06:02:08;;;;;;;26.85;9.90;;;;;;;5.38;72.73;100732.50;5125054;28;20058;-73
2022/11/11 06:05:17;;;;;;;19.08;9.07;;;;;;;5.27;74.54;100734.78;5127326;29;20058;-72
2022/11/11 06:08:26;;;;;;;22.25;9.20;;;;;;;5.29;72.92;100735.53;5119071;29;20114;-73
2022/11/11 06:11:35;;;;;;;21.88;9.93;;;;;;;5.19;75.03;100735.94;5119102;28;20078;-73
2022/11/11 06:14:44;;;;;;;24.08;10.13;;;;;;;5.26;74.30;100751.44;5119280;29;20576;-73
2022/11/11 06:17:53;;;;;;;20.50;9.10;;;;;;;5.20;74.08;100749.97;5114219;29;20058;-71
2022/11/11 06:21:02;;;;;;;24.15;8.65;;;;;;;5.15;73.33;100765.06;5116970;28;20062;-71
2022/11/11 06:24:11;;;;;;;17.95;8.60;;;;;;;5.03;74.39;100750.66;5117044;28;20051;-72
2022/11/11 06:27:20;;;;;;;22.75;9.93;;;;;;;5.15;73.32;100771.19;5118734;29;20687;-72
2022/11/11 06:30:29;;;;;;;30.73;10.93;;;;;;;5.15;73.16;100772.97;5115260;28;20079;-72
2022/11/11 06:33:57;;;;;;;17.75;9.35;;;;;;;5.13;73.31;100746.75;5118242;29;20960;-70
2022/11/11 06:37:06;;;;;;;15.85;8.23;;;;;;;5.14;73.39;100769.47;5116861;29;20109;-71
2022/11/11 06:40:15;;;;;;;18.00;8.02;;;;;;;5.05;73.53;100761.13;5118160;28;20414;-71
2022/11/11 06:43:30;;;;;;;14.20;7.75;;;;;;;5.12;73.13;100759.94;5119095;29;20059;-72
2022/11/11 06:46:39;;;;;;;15.60;8.00;;;;;;;5.09;73.22;100771.44;5117620;29;20051;-71
2022/11/11 06:49:48;;;;;;;16.38;7.93;;;;;;;5.23;73.77;100762.09;5117962;28;20047;-70
2022/11/11 06:53:04;;;;;;;16.70;8.35;;;;;;;5.22;72.21;100774.41;5118467;28;20059;-69
2022/11/11 06:56:13;;;;;;;18.17;8.27;;;;;;;5.29;72.64;100773.19;5120884;29;20054;-70
2022/11/11 06:59:22;;;;;;;24.83;9.95;;;;;;;5.20;74.22;100768.38;5119338;28;20047;-70
2022/11/11 07:02:31;;;;;;;35.88;10.32;;;;;;;5.22;74.48;100774.41;5120270;29;20074;-70
2022/11/11 07:05:41;;;;;;;30.30;12.10;;;;;;;5.42;74.56;100765.63;5120746;29;20054;-72
2022/11/11 07:08:50;;;;;;;23.60;11.45;;;;;;;5.57;73.39;100772.00;5121783;29;20460;-70
2022/11/11 07:11:58;;;;;;;25.42;11.30;;;;;;;5.52;73.47;100768.72;5118502;29;20413;-71
2022/11/11 07:15:08;;;;;;;22.90;10.40;;;;;;;5.65;73.65;100778.63;5121306;29;20445;-71
2022/11/11 07:18:17;;;;;;;21.15;10.10;;;;;;;5.64;74.35;100782.19;5120985;29;20062;-71
2022/11/11 07:21:26;;;;;;;20.85;8.90;;;;;;;5.84;72.75;100780.44;5121515;29;20569;-72
2022/11/11 07:24:34;;;;;;;15.77;9.00;;;;;;;5.81;72.91;100781.41;5120737;29;20062;-72
2022/11/11 07:27:43;;;;;;;16.92;8.73;;;;;;;5.86;73.49;100757.50;5119648;28;20105;-73
2022/11/11 07:30:53;;;;;;;18.95;9.93;;;;;;;6.22;73.31;100791.84;5119616;28;20055;-72
2022/11/11 07:34:01;;;;;;;18.02;10.15;;;;;;;6.20;72.90;100787.59;5115194;29;20122;-72
2022/11/11 07:37:11;;;;;;;26.00;10.90;;;;;;;6.32;73.02;100773.81;5119175;29;20465;-72
2022/11/11 07:40:20;;;;;;;21.55;11.88;;;;;;;6.48;73.38;100776.59;5115260;28;20588;-72
2022/11/11 07:43:29;;;;;;;29.98;12.43;;;;;;;6.65;72.44;100791.56;5120220;29;20055;-72
2022/11/11 07:46:38;;;;;;;21.15;11.82;;;;;;;6.67;72.71;100789.72;5119116;29;20052;-72
2022/11/11 07:49:47;;;;;;;30.52;12.05;;;;;;;6.72;73.33;100771.88;5120565;29;20078;-72
2022/11/11 07:52:55;;;;;;;25.95;11.88;;;;;;;6.77;72.58;100775.16;5117802;29;20178;-74
2022/11/11 07:56:04;;;;;;;20.45;10.57;;;;;;;6.68;73.26;100744.81;5119739;28;20708;-72
2022/11/11 07:59:13;;;;;;;20.33;10.55;;;;;;;7.03;73.36;100776.50;5120736;29;20070;-74
2022/11/11 08:02:22;;;;;;;23.23;11.30;;;;;;;7.16;73.10;100785.50;5120019;29;20058;-74
2022/11/11 08:05:31;;;;;;;19.98;11.20;;;;;;;7.05;72.87;100775.50;5119136;29;20055;-74
2022/11/11 08:08:41;;;;;;;20.42;10.30;;;;;;;7.34;71.96;100781.06;5117834;28;20536;-74
2022/11/11 08:15:17;;;;;;;18.45;9.35;;;;;;;7.38;72.45;100782.59;5120811;29;20051;-75
2022/11/11 08:18:26;;;;;;;19.33;9.52;;;;;;;7.74;71.20;100787.72;5119379;29;20062;-73
2022/11/11 08:21:35;;;;;;;16.95;10.07;;;;;;;7.92;71.48;100780.63;5118673;29;20120;-72
2022/11/11 08:24:44;;;;;;;28.30;9.63;;;;;;;8.00;72.08;100780.19;5119620;28;20046;-71
2022/11/11 08:28:13;;;;;;;25.25;9.55;;;;;;;8.17;70.74;100784.53;5120420;29;20061;-73
2022/11/11 08:31:22;;;;;;;23.42;10.38;;;;;;;8.19;70.49;100762.38;5119831;28;20109;-73
2022/11/11 08:34:31;;;;;;;25.27;10.77;;;;;;;8.39;71.35;100777.16;5118455;29;20070;-73
2022/11/11 08:37:40;;;;;;;19.02;11.13;;;;;;;8.68;70.68;100786.09;5117970;28;20051;-73
2022/11/11 08:40:52;;;;;;;18.63;9.82;;;;;;;9.23;69.61;100781.16;5118119;28;20433;-73
2022/11/11 08:44:01;;;;;;;19.15;9.75;;;;;;;9.52;68.64;100797.94;5118861;29;20062;-73
2022/11/11 08:47:10;;;;;;;20.83;9.95;;;;;;;9.70;68.13;100790.66;5118733;29;20055;-73
2022/11/11 08:50:19;;;;;;;24.88;12.32;;;;;;;10.31;66.50;100782.41;5119910;29;20082;-73
2022/11/11 08:53:28;;;;;;;16.80;8.20;;;;;;;10.71;63.71;100801.03;5142663;28;20055;-73
2022/11/11 08:56:37;;;;;;;18.92;11.10;;;;;;;11.25;64.96;100784.19;5124683;29;20113;-74
2022/11/11 08:59:46;;;;;;;14.70;8.73;;;;;;;12.14;64.35;100789.47;5118064;28;20089;-74
2022/11/11 09:03:00;;;;;;;11.85;7.70;;;;;;;12.71;61.66;100777.34;5120072;29;20058;-74
2022/11/11 09:06:11;;;;;;;14.93;6.65;;;;;;;12.51;59.90;100780.66;5120133;29;20054;-74
2022/11/11 09:09:20;;;;;;;10.38;6.35;;;;;;;11.73;61.23;100782.59;5119262;28;20074;-74
2022/11/11 09:12:29;;;;;;;11.68;5.82;;;;;;;11.70;61.03;100782.81;5116262;28;20505;-74
2022/11/11 09:15:38;;;;;;;11.07;6.68;;;;;;;11.14;63.75;100781.41;5118311;28;20058;-73
2022/11/11 09:18:47;;;;;;;12.95;6.30;;;;;;;10.84;64.98;100769.25;5114579;29;20151;-74
2022/11/11 09:21:56;;;;;;;11.55;6.75;;;;;;;10.91;65.31;100775.84;5115829;29;20110;-74
2022/11/11 09:25:05;;;;;;;11.68;6.65;;;;;;;10.74;65.97;100754.88;5118980;29;20051;-73
2022/11/11 09:28:14;;;;;;;11.68;6.60;;;;;;;10.99;66.39;100767.34;5117919;28;20105;-74
2022/11/11 09:31:23;;;;;;;10.52;6.57;;;;;;;11.15;65.69;100765.38;5118563;29;20062;-74
2022/11/11 09:34:54;;;;;;;12.32;6.82;;;;;;;10.95;66.33;100756.09;5115525;29;20058;-74
2022/11/11 09:38:03;;;;;;;12.40;6.63;;;;;;;11.28;65.41;100763.56;5128998;28;20466;-74
2022/11/11 09:41:21;;;;;;;9.98;6.53;;;;;;;11.40;66.58;100766.38;5116846;28;20051;-74
2022/11/11 09:44:32;;;;;;;12.68;7.25;;;;;;;11.36;65.24;100763.06;5118985;28;20094;-74
2022/11/11 09:47:56;;;;;;;10.63;6.95;;;;;;;11.58;65.21;100769.53;5117544;28;20728;-74
2022/11/11 09:51:22;;;;;;;12.02;7.03;;;;;;;11.73;64.26;100753.38;5117290;29;20505;-74
2022/11/11 09:54:58;;;;;;;12.27;7.40;;;;;;;11.61;64.89;100767.50;5117309;28;20082;-74
2022/11/11 09:58:18;;;;;;;13.32;6.80;;;;;;;11.98;64.41;100763.13;5106277;29;20517;-73
2022/11/11 10:01:33;;;;;;;12.43;7.25;;;;;;;11.69;66.02;100754.56;5104005;29;20549;-74
2022/11/11 10:04:59;;;;;;;11.27;6.78;;;;;;;11.76;64.52;100758.47;5104379;29;20066;-74
2022/11/11 10:08:18;;;;;;;18.80;6.72;;;;;;;11.79;65.68;100762.72;5097377;29;20113;-74
2022/11/11 10:11:46;;;;;;;11.20;6.57;;;;;;;12.05;65.56;100758.22;5095217;29;20117;-74
2022/11/11 10:14:55;;;;;;;12.38;6.20;;;;;;;12.01;65.91;100766.53;5092128;29;20051;-74
2022/11/11 10:18:20;;;;;;;10.88;6.90;;;;;;;11.90;65.47;100748.72;5091858;29;20082;-74
2022/11/11 10:21:48;;;;;;;9.77;6.22;;;;;;;11.91;65.40;100767.19;5092476;29;20062;-74
2022/11/11 10:25:21;;;;;;;15.43;6.57;;;;;;;11.76;66.24;100747.00;5097653;28;20109;-74
2022/11/11 10:28:34;;;;;;;13.02;6.28;;;;;;;11.97;65.58;100755.28;5103426;28;20506;-74
2022/11/11 10:32:03;;;;;;;10.18;6.28;;;;;;;11.96;66.30;100764.22;5104820;28;20082;-74
2022/11/11 10:35:25;;;;;;;12.48;6.90;;;;;;;12.38;66.27;100764.72;5107954;29;20070;-74
2022/11/11 10:38:46;;;;;;;15.45;7.15;;;;;;;12.52;65.40;100774.38;5108670;28;20126;-73
2022/11/11 10:41:55;;;;;;;11.80;7.05;;;;;;;12.37;65.68;100763.88;5104719;28;20145;-74
2022/11/11 10:45:14;;;;;;;8.65;6.18;;;;;;;12.67;64.60;100765.25;5105968;29;20475;-74
2022/11/11 10:48:36;;;;;;;10.80;6.28;;;;;;;12.73;63.76;100753.31;5110262;29;20165;-74
2022/11/11 10:52:03;;;;;;;9.88;5.72;;;;;;;12.79;64.02;100747.53;5102478;28;20662;-74
2022/11/11 10:55:12;;;;;;;13.05;7.07;;;;;;;12.81;63.64;100709.16;5100520;29;20062;-73
2022/11/11 10:58:25;;;;;;;12.15;6.70;;;;;;;13.10;64.51;100740.72;5100324;28;21238;-73
2022/11/11 11:02:05;;;;;;;9.55;5.82;;;;;;;13.04;64.32;100735.84;5165539;23;20438;-86
2022/11/11 11:05:54;;;;;;;11.73;6.15;;;;;;;13.07;64.58;100733.81;5164680;28;20073;-87
2022/11/11 11:09:11;;;;;;;6.95;5.32;;;;;;;13.37;62.90;100724.44;5122751;29;20074;-87
2022/11/11 11:12:37;;;;;;;8.80;5.38;;;;;;;13.43;63.12;100715.13;5150929;23;20046;-74
2022/11/11 11:15:52;;;;;;;9.55;5.78;;;;;;;13.52;63.00;100709.94;5140469;28;20192;-71
2022/11/11 11:19:23;;;;;;;10.88;5.60;;;;;;;13.56;62.47;100707.88;5140085;28;20125;-73
2022/11/11 11:22:52;;;;;;;8.43;5.47;;;;;;;14.00;61.48;100708.78;5121836;29;20062;-76
2022/11/11 11:26:03;;;;;;;10.70;5.10;;;;;;;13.94;60.76;100707.50;5122746;29;20142;-72
2022/11/11 11:29:12;;;;;;;9.23;4.90;;;;;;;13.86;60.48;100688.59;5121733;29;20134;-73
2022/11/11 11:32:29;;;;;;;12.48;5.45;;;;;;;13.78;62.32;100705.19;5120490;29;20059;-72
2022/11/11 11:35:41;;;;;;;11.10;5.22;;;;;;;14.18;60.51;100715.31;5123185;29;20051;-69
2022/11/11 11:38:50;;;;;;;7.88;4.93;;;;;;;14.02;61.42;100710.38;5118493;28;20094;-74
2022/11/11 11:41:59;;;;;;;6.82;4.15;;;;;;;14.27;61.01;100703.03;5118461;29;20540;-73
2022/11/11 11:45:28;;;;;;;9.98;4.65;;;;;;;14.47;60.62;100712.06;5121079;29;20074;-71
2022/11/11 11:49:07;;;;;;;9.70;4.32;;;;;;;14.64;60.08;100708.91;5120191;29;20097;-72
2022/11/11 11:52:19;;;;;;;7.57;3.97;;;;;;;14.75;58.58;100706.16;5120547;28;20645;-73
2022/11/11 11:55:34;;;;;;;6.85;4.15;;;;;;;14.70;59.62;100703.03;5119907;29;20133;-72
2022/11/11 11:58:56;;;;;;;7.75;4.00;;;;;;;14.99;59.19;100702.38;5120627;29;20176;-75
2022/11/11 12:02:35;;;;;;;12.55;4.70;;;;;;;14.99;59.36;100713.91;5120175;29;20101;-70
2022/11/11 12:05:48;;;;;;;7.38;4.45;;;;;;;14.92;58.68;100710.06;5120232;29;20486;-72
2022/11/11 12:09:28;;;;;;;9.10;3.80;;;;;;;14.82;59.71;100708.31;5118425;29;20429;-70
2022/11/11 12:12:56;;;;;;;11.73;3.88;;;;;;;14.88;58.39;100711.31;5118990;29;20082;-71
2022/11/11 12:16:20;;;;;;;9.20;4.28;;;;;;;14.83;59.50;100708.19;5116947;29;20115;-72
2022/11/11 12:19:38;;;;;;;6.35;3.70;;;;;;;14.96;58.89;100706.16;5121969;29;20066;-74
2022/11/11 12:23:09;;;;;;;10.02;4.88;;;;;;;14.84;60.39;100703.72;5119008;29;20339;-71
2022/11/11 12:26:38;;;;;;;9.05;4.22;;;;;;;15.09;58.90;100707.78;5120546;29;20126;-71
2022/11/11 12:29:53;;;;;;;8.02;4.38;;;;;;;14.74;60.63;100703.63;5121128;29;20109;-72
2022/11/11 12:33:36;;;;;;;9.85;4.85;;;;;;;14.42;61.36;100699.09;5132307;28;20130;-72
2022/11/11 12:36:57;;;;;;;10.32;4.05;;;;;;;14.65;61.48;100702.56;5108393;28;20540;-73
2022/11/11 12:40:43;;;;;;;8.52;3.78;;;;;;;14.60;61.10;100693.25;5116350;28;20054;-73
2022/11/11 12:44:10;;;;;;;6.35;3.63;;;;;;;14.39;60.91;100640.66;5118396;29;20119;-72
2022/11/11 12:47:43;;;;;;;5.88;3.33;;;;;;;14.81;61.09;100688.78;5120173;28;20051;-72
2022/11/11 12:51:10;;;;;;;9.25;3.75;;;;;;;14.95;59.54;100682.25;5117734;28;20478;-73
2022/11/11 12:54:33;;;;;;;7.28;3.58;;;;;;;14.84;59.69;100683.19;5119171;28;20098;-72
2022/11/11 12:58:27;;;;;;;4.90;2.95;;;;;;;14.91;60.02;100686.19;5119107;29;20509;-72
2022/11/11 13:01:50;;;;;;;8.40;3.28;;;;;;;14.87;61.10;100687.44;5117619;28;20055;-72
2022/11/11 13:05:23;;;;;;;5.55;2.63;;;;;;;14.63;60.82;100642.25;5118300;29;20047;-73
2022/11/11 13:08:54;;;;;;;5.50;2.60;;;;;;;14.90;59.31;100674.66;5118004;28;20062;-73
2022/11/11 13:12:13;;;;;;;13.57;3.60;;;;;;;14.70;61.39;100644.31;5119436;28;20548;-75
2022/11/11 13:15:28;;;;;;;8.18;4.20;;;;;;;14.84;61.29;100655.63;5120132;29;20137;-73
2022/11/11 13:18:59;;;;;;;11.13;4.55;;;;;;;14.94;61.70;100660.06;5113341;29;20509;-73
2022/11/11 13:22:20;;;;;;;12.95;4.10;;;;;;;15.30;58.18;100668.56;5122067;28;20051;-72
2022/11/11 13:25:34;;;;;;;11.18;4.45;;;;;;;15.03;59.23;100659.28;5116466;29;20704;-73
2022/11/11 13:28:48;;;;;;;6.20;3.53;;;;;;;14.86;59.49;100659.84;5115880;29;20055;-73
2022/11/11 13:32:03;;;;;;;7.35;3.50;;;;;;;14.84;59.54;100639.63;5116616;29;20062;-75
2022/11/11 13:35:34;;;;;;;12.43;3.60;;;;;;;14.65;59.98;100602.94;5120064;29;20058;-73
2022/11/11 13:38:50;;;;;;;9.07;4.05;;;;;;;14.44;60.01;100569.06;5118621;29;20078;-72
2022/11/11 13:42:05;;;;;;;5.63;3.33;;;;;;;14.84;60.44;100639.63;5118800;28;20079;-78
2022/11/11 13:45:29;;;;;;;6.35;2.92;;;;;;;14.83;60.54;100653.91;5122248;28;20110;-71
2022/11/11 13:48:48;;;;;;;8.90;3.00;;;;;;;14.95;61.21;100664.41;5119783;29;20062;-72
2022/11/11 13:52:36;;;;;;;6.20;2.97;;;;;;;14.71;61.96;100634.47;5119265;29;20058;-72
2022/11/11 13:55:46;;;;;;;9.85;2.55;;;;;;;14.67;60.99;100652.56;5111728;29;20421;-71
2022/11/11 13:59:00;;;;;;;7.10;2.22;;;;;;;14.53;61.98;100627.00;5118076;29;20213;-72
2022/11/11 14:02:29;;;;;;;7.25;2.65;;;;;;;14.63;62.50;100656.47;5118872;29;20135;-72
2022/11/11 14:05:39;;;;;;;5.50;2.40;;;;;;;14.60;62.31;100654.03;5120525;29;20051;-72
2022/11/11 14:08:55;;;;;;;6.22;2.63;;;;;;;14.51;62.46;100650.34;5118199;29;20085;-72
2022/11/11 14:12:32;;;;;;;6.43;2.72;;;;;;;14.59;63.49;100667.53;5118311;28;20126;-74
2022/11/11 14:15:47;;;;;;;5.65;3.30;;;;;;;14.59;63.70;100662.19;5119212;29;20513;-74
2022/11/11 14:18:56;;;;;;;8.18;3.67;;;;;;;14.70;60.33;100676.34;5118159;28;20956;-73
2022/11/11 14:22:28;;;;;;;8.27;3.88;;;;;;;14.71;62.04;100677.19;5117439;29;20066;-74
2022/11/11 14:29:51;;;;;;;7.93;3.78;;;;;;;14.40;63.44;100666.34;5120216;28;20091;-70
2022/11/11 14:33:12;;;;;;;6.38;3.53;;;;;;;13.80;64.34;100569.09;5118697;29;20055;-70
2022/11/11 14:36:51;;;;;;;5.20;3.80;;;;;;;14.33;64.89;100658.00;5119402;29;20048;-71
2022/11/11 14:40:01;;;;;;;10.07;3.88;;;;;;;14.34;64.89;100669.56;5117028;28;20475;-71
2022/11/11 14:43:43;;;;;;;5.97;3.58;;;;;;;14.32;65.31;100677.66;5118057;28;20486;-73
2022/11/11 14:47:01;;;;;;;5.93;4.22;;;;;;;14.26;66.31;100672.84;5114872;29;20551;-71
2022/11/11 14:50:42;;;;;;;6.28;4.38;;;;;;;14.22;65.12;100683.91;5120436;28;20521;-73
2022/11/11 14:53:53;;;;;;;6.85;4.13;;;;;;;13.93;65.49;100665.78;5121288;28;20066;-70
2022/11/11 15:01:18;;;;;;;9.43;3.60;;;;;;;13.89;66.34;100677.66;5116048;28;20051;-72
2022/11/11 15:04:39;;;;;;;6.70;3.13;;;;;;;13.82;66.63;100669.31;5118763;28;20086;-70
2022/11/11 15:07:57;;;;;;;6.85;2.83;;;;;;;13.70;66.25;100674.78;5119504;29;20054;-70
2022/11/11 15:11:58;;;;;;;5.07;2.80;;;;;;;13.62;66.60;100670.06;5100004;29;20111;-70
2022/11/11 15:15:33;;;;;;;4.32;2.75;;;;;;;13.44;66.35;100667.03;5116905;29;20160;-71
2022/11/11 15:18:59;;;;;;;7.72;3.30;;;;;;;13.36;66.44;100680.13;5121387;28;20109;-71
2022/11/11 15:22:31;;;;;;;6.35;3.58;;;;;;;13.24;67.12;100681.03;5122542;28;20066;-72
2022/11/11 15:25:49;;;;;;;5.18;3.17;;;;;;;13.24;66.23;100689.03;5102821;29;20066;-72
2022/11/11 15:29:33;;;;;;;5.75;3.55;;;;;;;13.00;66.51;100681.97;5121800;29;20082;-72
2022/11/11 15:32:44;;;;;;;7.57;3.53;;;;;;;12.78;66.64;100679.25;5121683;29;20478;-72
2022/11/11 15:36:17;;;;;;;5.93;3.40;;;;;;;12.33;67.44;100640.06;5122678;29;20142;-72
2022/11/11 15:39:50;;;;;;;6.05;3.15;;;;;;;12.45;66.93;100675.56;5121715;29;20714;-71
2022/11/11 15:43:02;;;;;;;7.07;3.72;;;;;;;12.26;66.99;100665.41;5121277;28;20058;-72
2022/11/11 15:46:25;;;;;;;4.10;3.30;;;;;;;12.24;67.50;100672.66;5120773;29;20170;-72
2022/11/11 15:49:41;;;;;;;7.45;3.83;;;;;;;12.15;67.38;100674.19;5120074;29;20047;-72
2022/11/11 15:53:03;;;;;;;9.60;5.15;;;;;;;12.02;67.55;100667.22;5123026;28;20061;-72
2022/11/11 15:56:37;;;;;;;11.48;5.72;;;;;;;11.85;68.27;100671.94;5121162;29;20135;-71
2022/11/11 15:59:49;;;;;;;10.27;5.72;;;;;;;11.60;68.24;100654.25;5122214;28;20110;-72
2022/11/11 16:03:04;;;;;;;17.58;7.82;;;;;;;11.57;68.42;100673.06;5121505;29;20081;-73
2022/11/11 16:06:16;;;;;;;17.60;9.18;;;;;;;11.58;68.65;100688.03;5121686;29;20520;-71
2022/11/11 16:09:30;;;;;;;25.55;9.90;;;;;;;11.48;69.02;100694.94;5119887;29;20575;-73
2022/11/11 16:12:45;;;;;;;16.27;8.73;;;;;;;11.21;68.33;100655.25;5121291;29;20062;-73
2022/11/11 16:16:07;;;;;;;20.73;9.80;;;;;;;11.21;68.41;100687.09;5121679;29;20503;-72
2022/11/11 16:19:52;;;;;;;22.70;9.00;;;;;;;11.13;68.38;100677.03;5121667;29;20059;-73